createdAt,value
2018-11-02T00:01:00.179Z,56.30
2018-11-02T00:03:27.924Z,55.92
2018-11-02T00:05:55.648Z,56.50
2018-11-02T00:08:23.336Z,56.05
2018-11-02T00:10:51.014Z,56.11
2018-11-02T00:13:18.773Z,56.45
2018-11-02T00:15:46.500Z,56.12
2018-11-02T00:18:14.254Z,56.35
2018-11-02T00:20:41.971Z,55.76
2018-11-02T00:23:09.653Z,56.13
2018-11-02T00:25:37.474Z,56.14
2018-11-02T00:28:05.279Z,55.95
2018-11-02T00:30:32.966Z,56.20
2018-11-02T00:33:00.734Z,55.42
2018-11-02T00:35:28.477Z,56.50
2018-11-02T00:37:56.136Z,56.37
2018-11-02T00:40:23.902Z,55.76
2018-11-02T00:42:51.542Z,56.32
2018-11-02T00:45:19.240Z,55.89
2018-11-02T00:47:46.973Z,56.03
2018-11-02T00:50:14.634Z,55.86
2018-11-02T00:52:42.364Z,56.34
2018-11-02T00:55:10.871Z,56.31
2018-11-02T00:57:38.611Z,56.42
2018-11-02T01:00:08.063Z,56.20
2018-11-02T01:02:35.747Z,55.63
2018-11-02T01:05:03.953Z,56.15
2018-11-02T01:07:31.638Z,56.00
2018-11-02T01:09:59.364Z,55.62
2018-11-02T01:12:27.092Z,56.33
2018-11-02T01:14:54.826Z,55.92
2018-11-02T01:17:22.477Z,56.32
2018-11-02T01:19:50.187Z,55.48
2018-11-02T01:22:17.889Z,56.01
2018-11-02T01:24:45.573Z,56.21
2018-11-02T01:27:13.317Z,56.06
2018-11-02T01:29:41.060Z,56.51
2018-11-02T01:32:08.820Z,55.96
2018-11-02T01:34:36.522Z,55.79
2018-11-02T01:37:04.223Z,56.25
2018-11-02T01:39:31.925Z,55.62
2018-11-02T01:42:00.523Z,55.97
2018-11-02T01:44:28.237Z,56.07
2018-11-02T01:46:55.979Z,55.55
2018-11-02T01:49:23.646Z,56.19
2018-11-02T01:51:51.353Z,56.20
2018-11-02T01:54:19.085Z,55.45
2018-11-02T01:56:46.797Z,56.26
2018-11-02T01:59:14.529Z,56.16
2018-11-02T02:01:42.208Z,55.34
2018-11-02T02:04:09.926Z,55.82
2018-11-02T02:06:37.586Z,56.02
2018-11-02T02:09:07.275Z,55.96
2018-11-02T02:11:34.983Z,55.26
2018-11-02T02:14:02.717Z,55.46
2018-11-02T02:16:30.336Z,56.10
2018-11-02T02:18:58.086Z,55.48
2018-11-02T02:21:25.773Z,56.30
2018-11-02T02:23:53.488Z,56.43
2018-11-02T02:26:21.140Z,56.23
2018-11-02T02:28:48.848Z,55.21
2018-11-02T02:31:16.635Z,56.29
2018-11-02T02:33:44.315Z,55.26
2018-11-02T02:36:12.074Z,55.43
2018-11-02T02:38:39.831Z,56.18
2018-11-02T02:41:07.523Z,55.45
2018-11-02T02:43:35.193Z,55.54
2018-11-02T02:46:03.023Z,55.45
2018-11-02T02:48:30.753Z,55.87
2018-11-02T02:50:58.519Z,55.61
2018-11-02T02:53:26.293Z,55.88
2018-11-02T02:55:54.075Z,56.30
2018-11-02T02:58:21.848Z,55.76
2018-11-02T03:00:49.708Z,56.23
2018-11-02T03:03:17.406Z,55.59
2018-11-02T03:05:45.270Z,56.31
2018-11-02T03:08:13.055Z,55.75
2018-11-02T03:10:40.850Z,55.86
2018-11-02T03:13:08.502Z,55.53
2018-11-02T03:15:36.267Z,56.24
2018-11-02T03:18:03.981Z,55.66
2018-11-02T03:20:31.745Z,56.05
2018-11-02T03:22:59.554Z,55.54
2018-11-02T03:25:27.250Z,55.48
2018-11-02T03:27:54.966Z,55.52
2018-11-02T03:30:22.741Z,55.66
2018-11-02T03:32:50.413Z,56.39
2018-11-02T03:35:18.166Z,55.57
2018-11-02T03:37:45.833Z,56.35
2018-11-02T03:40:13.511Z,55.34
2018-11-02T03:42:41.651Z,55.44
2018-11-02T03:45:09.375Z,55.45
2018-11-02T03:47:37.084Z,56.19
2018-11-02T03:50:05.398Z,55.89
2018-11-02T03:52:33.074Z,55.85
2018-11-02T03:55:00.797Z,56.12
2018-11-02T03:57:28.495Z,55.37
2018-11-02T03:59:56.153Z,55.65
2018-11-02T04:02:23.801Z,55.54
2018-11-02T04:04:51.500Z,55.46
2018-11-02T04:07:19.213Z,55.98
2018-11-02T04:09:47.047Z,56.17
2018-11-02T04:12:14.609Z,56.02
2018-11-02T04:14:42.262Z,56.01
2018-11-02T04:17:09.965Z,56.05
2018-11-02T04:19:37.666Z,55.59
2018-11-02T04:22:05.381Z,55.72
2018-11-02T04:24:33.110Z,56.40
2018-11-02T04:27:00.783Z,55.99
2018-11-02T04:29:28.473Z,56.01
2018-11-02T04:31:56.165Z,56.50
2018-11-02T04:34:23.854Z,55.70
2018-11-02T04:36:51.633Z,55.74
2018-11-02T04:39:19.320Z,56.44
2018-11-02T04:41:46.992Z,56.51
2018-11-02T04:44:14.649Z,56.03
2018-11-02T04:46:42.405Z,56.60
2018-11-02T04:49:10.249Z,55.78
2018-11-02T04:51:38.420Z,56.53
2018-11-02T04:54:06.171Z,56.65
2018-11-02T04:56:33.963Z,55.78
2018-11-02T04:59:01.747Z,55.93
2018-11-02T05:01:29.646Z,56.18
2018-11-02T05:03:57.603Z,55.60
2018-11-02T05:06:25.411Z,55.56
2018-11-02T05:08:53.253Z,56.39
2018-11-02T05:11:21.066Z,56.16
2018-11-02T05:13:48.934Z,55.82
2018-11-02T05:16:23.136Z,56.50
2018-11-02T05:18:50.897Z,56.48
2018-11-02T05:21:18.758Z,55.69
2018-11-02T05:23:46.545Z,55.74
2018-11-02T05:26:14.436Z,56.40
2018-11-02T05:28:48.755Z,55.78
2018-11-02T05:31:16.512Z,56.74
2018-11-02T05:33:45.143Z,56.02
2018-11-02T05:36:12.924Z,55.98
2018-11-02T05:45:42.343Z,56.11
2018-11-02T05:48:10.152Z,55.69
2018-11-02T05:50:38.012Z,55.60
2018-11-02T05:53:05.854Z,56.06
2018-11-02T05:55:33.685Z,56.16
2018-11-02T05:58:01.470Z,56.40
2018-11-02T06:00:29.344Z,55.93
2018-11-02T06:02:57.183Z,56.00
2018-11-02T06:05:24.942Z,55.72
2018-11-02T06:07:52.855Z,56.56
2018-11-02T06:10:20.686Z,56.60
2018-11-02T06:12:48.622Z,55.81
2018-11-02T06:15:16.403Z,56.42
2018-11-02T06:17:44.128Z,56.55
2018-11-02T06:20:12.004Z,56.13
2018-11-02T06:22:40.768Z,55.82
2018-11-02T06:25:08.743Z,56.76
2018-11-02T06:27:36.918Z,56.07
2018-11-02T06:30:05.192Z,56.79
2018-11-02T06:32:33.152Z,56.78
2018-11-02T06:35:01.009Z,56.30
2018-11-02T06:37:28.870Z,56.09
2018-11-02T06:39:56.713Z,56.02
2018-11-02T06:42:26.664Z,55.91
2018-11-02T06:44:54.576Z,55.97
2018-11-02T06:47:22.417Z,55.78
2018-11-02T06:49:50.305Z,56.02
2018-11-02T06:52:18.540Z,56.21
2018-11-02T06:54:53.026Z,55.82
2018-11-02T06:57:22.044Z,56.40
2018-11-02T06:59:50.238Z,55.69
2018-11-02T07:02:18.028Z,55.64
2018-11-02T07:04:45.986Z,55.93
2018-11-02T07:07:14.063Z,55.72
2018-11-02T07:09:41.951Z,55.89
2018-11-02T07:12:09.857Z,55.78
2018-11-02T07:14:37.799Z,56.41
2018-11-02T07:17:05.741Z,56.14
2018-11-02T07:19:33.496Z,56.37
2018-11-02T07:22:01.203Z,55.88
2018-11-02T07:24:28.904Z,56.11
2018-11-02T07:26:56.621Z,55.37
2018-11-02T07:29:24.311Z,55.38
2018-11-02T07:31:51.953Z,56.07
2018-11-02T07:34:19.645Z,55.58
2018-11-02T07:36:47.306Z,55.49
2018-11-02T07:39:15.060Z,55.93
2018-11-02T07:41:42.707Z,55.48
2018-11-02T07:44:10.441Z,55.59
2018-11-02T07:46:38.522Z,56.20
2018-11-02T07:49:06.218Z,55.51
2018-11-02T07:51:33.904Z,55.49
2018-11-02T07:54:01.557Z,55.52
2018-11-02T07:56:29.233Z,56.29
2018-11-02T07:58:56.920Z,56.30
2018-11-02T08:01:24.579Z,56.21
2018-11-02T08:03:52.250Z,56.24
2018-11-02T08:06:19.902Z,56.22
2018-11-02T08:08:47.752Z,55.65
2018-11-02T08:11:15.461Z,55.21
2018-11-02T08:13:43.303Z,54.95
2018-11-02T08:16:10.963Z,54.84
2018-11-02T08:18:38.638Z,54.97
2018-11-02T08:21:06.282Z,55.51
2018-11-02T08:23:33.929Z,54.12
2018-11-02T08:26:01.602Z,54.61
2018-11-02T08:28:29.309Z,55.19
2018-11-02T08:30:56.961Z,54.42
2018-11-02T08:33:24.599Z,53.90
2018-11-02T08:35:52.242Z,54.21
2018-11-02T08:38:19.906Z,55.06
2018-11-02T08:40:47.545Z,54.63
2018-11-02T08:43:15.185Z,55.09
2018-11-02T08:45:42.834Z,54.64
2018-11-02T08:48:10.480Z,55.11
2018-11-02T08:50:38.114Z,54.86
2018-11-02T08:53:05.793Z,54.93
2018-11-02T08:55:33.449Z,54.53
2018-11-02T08:58:01.246Z,54.86
2018-11-02T09:00:28.734Z,54.63
2018-11-02T09:02:56.381Z,54.66
2018-11-02T09:05:24.033Z,54.75
2018-11-02T09:07:51.681Z,54.27
2018-11-02T09:10:19.345Z,54.87
2018-11-02T09:12:46.997Z,54.62
2018-11-02T09:15:14.646Z,55.02
2018-11-02T09:17:42.290Z,54.86
2018-11-02T09:20:09.942Z,55.37
2018-11-02T09:22:37.602Z,55.26
2018-11-02T09:25:06.224Z,54.90
2018-11-02T09:27:33.996Z,55.72
2018-11-02T09:30:01.591Z,54.96
2018-11-02T09:32:29.240Z,55.22
2018-11-02T09:34:56.880Z,55.09
2018-11-02T09:37:24.522Z,54.27
2018-11-02T09:39:52.202Z,54.27
2018-11-02T09:42:19.862Z,54.63
2018-11-02T09:44:47.531Z,55.30
2018-11-02T09:47:15.202Z,55.19
2018-11-02T09:49:42.870Z,54.91
2018-11-02T09:52:10.716Z,55.14
2018-11-02T09:54:38.291Z,55.06
2018-11-02T09:57:06.010Z,54.59
2018-11-02T09:59:33.710Z,55.27
2018-11-02T10:02:01.491Z,55.24
2018-11-02T10:04:29.104Z,54.81
2018-11-02T10:06:56.760Z,55.48
2018-11-02T10:09:24.431Z,54.79
2018-11-02T10:11:52.076Z,54.73
2018-11-02T10:14:19.708Z,55.01
2018-11-02T10:16:47.418Z,54.54
2018-11-02T10:19:15.154Z,54.91
2018-11-02T10:21:42.801Z,54.39
2018-11-02T10:24:10.529Z,54.31
2018-11-02T10:26:38.173Z,54.77
2018-11-02T10:29:06.259Z,54.20
2018-11-02T10:31:33.920Z,54.17
2018-11-02T10:34:01.582Z,54.76
2018-11-02T10:36:29.224Z,54.37
2018-11-02T10:38:57.104Z,54.80
2018-11-02T10:41:26.653Z,55.28
2018-11-02T10:43:54.347Z,54.99
2018-11-02T10:46:22.038Z,54.57
2018-11-02T10:48:49.696Z,54.74
2018-11-02T10:51:17.393Z,55.56
2018-11-02T10:53:45.039Z,55.48
2018-11-02T10:56:12.693Z,55.25
2018-11-02T10:58:40.342Z,55.85
2018-11-02T11:01:13.301Z,55.82
2018-11-02T11:03:40.951Z,55.48
2018-11-02T11:06:08.618Z,55.17
2018-11-02T11:08:36.281Z,54.91
2018-11-02T11:11:04.003Z,55.56
2018-11-02T11:13:31.998Z,55.38
2018-11-02T11:15:59.335Z,55.56
2018-11-02T11:18:26.988Z,54.97
2018-11-02T11:20:54.658Z,54.92
2018-11-02T11:23:22.370Z,55.44
2018-11-02T11:25:50.028Z,55.09
2018-11-02T11:28:17.673Z,55.68
2018-11-02T11:30:45.338Z,55.41
2018-11-02T11:33:13.016Z,54.88
2018-11-02T11:35:40.702Z,54.61
2018-11-02T11:38:08.454Z,55.38
2018-11-02T11:40:36.114Z,55.39
2018-11-02T11:43:03.925Z,54.92
2018-11-02T11:45:31.717Z,55.51
2018-11-02T11:47:59.484Z,55.60
2018-11-02T11:50:27.185Z,55.64
2018-11-02T11:52:55.401Z,55.59
2018-11-02T11:55:23.149Z,55.68
2018-11-02T11:57:52.005Z,54.91
2018-11-02T12:00:21.169Z,55.08
2018-11-02T12:02:49.593Z,55.60
2018-11-02T12:05:20.480Z,54.97
2018-11-02T12:07:48.203Z,55.58
2018-11-02T12:10:17.854Z,55.62
2018-11-02T12:12:45.641Z,55.05
2018-11-02T12:15:14.941Z,55.45
2018-11-02T12:17:43.527Z,55.09
2018-11-02T12:20:12.981Z,55.33
2018-11-02T12:22:41.080Z,55.32
2018-11-02T12:25:10.146Z,55.43
2018-11-02T12:27:38.490Z,55.32
2018-11-02T12:30:07.574Z,55.77
2018-11-02T12:32:35.346Z,55.99
2018-11-02T12:35:03.114Z,56.13
2018-11-02T12:37:30.853Z,55.32
2018-11-02T12:39:58.509Z,56.11
2018-11-02T12:42:26.447Z,55.50
2018-11-02T12:44:54.277Z,55.63
2018-11-02T12:47:21.934Z,55.18
2018-11-02T12:49:49.930Z,55.74
2018-11-02T12:52:17.244Z,55.32
2018-11-02T12:54:44.912Z,55.09
2018-11-02T12:57:12.561Z,55.48
2018-11-02T12:59:40.220Z,55.45
2018-11-02T13:02:07.994Z,55.64
2018-11-02T13:04:35.645Z,55.00
2018-11-02T13:07:03.339Z,54.98
2018-11-02T13:09:31.110Z,55.49
2018-11-02T13:11:58.706Z,56.07
2018-11-02T13:14:26.366Z,56.09
2018-11-02T13:16:54.019Z,55.93
2018-11-02T13:19:21.669Z,56.26
2018-11-02T13:21:49.405Z,55.88
2018-11-02T13:24:17.273Z,55.80
2018-11-02T13:26:44.934Z,55.85
2018-11-02T13:29:12.597Z,56.10
2018-11-02T13:31:40.279Z,55.29
2018-11-02T13:34:07.958Z,55.19
2018-11-02T13:36:35.874Z,55.28
2018-11-02T13:39:03.442Z,56.01
2018-11-02T13:41:31.110Z,56.09
2018-11-02T13:43:58.766Z,56.10
2018-11-02T13:46:27.942Z,55.57
2018-11-02T13:48:55.585Z,55.36
2018-11-02T13:51:23.320Z,55.56
2018-11-02T13:53:51.005Z,55.75
2018-11-02T13:56:18.671Z,56.02
2018-11-02T13:58:46.327Z,55.26
2018-11-02T14:01:14.015Z,55.92
2018-11-02T14:03:41.634Z,55.65
2018-11-02T14:06:09.414Z,55.50
2018-11-02T14:08:37.062Z,55.82
2018-11-02T14:11:04.754Z,55.73
2018-11-02T14:13:32.413Z,56.06
2018-11-02T14:16:00.074Z,55.85
2018-11-02T14:18:27.771Z,55.86
2018-11-02T14:20:55.390Z,55.42
2018-11-02T14:23:23.082Z,56.07
2018-11-02T14:25:50.759Z,56.24
2018-11-02T14:28:18.411Z,55.34
2018-11-02T14:30:46.065Z,56.27
2018-11-02T14:33:13.752Z,55.36
2018-11-02T14:35:41.404Z,55.52
2018-11-02T14:38:09.061Z,55.72
2018-11-02T14:40:36.794Z,55.82
2018-11-02T14:43:04.761Z,55.70
2018-11-02T14:45:32.429Z,55.88
2018-11-02T14:48:00.078Z,55.59
2018-11-02T14:50:27.847Z,55.33
2018-11-02T14:52:55.502Z,56.05
2018-11-02T14:55:23.166Z,55.99
2018-11-02T14:57:50.829Z,55.85
2018-11-02T15:00:18.470Z,55.75
2018-11-02T15:02:46.104Z,56.05
2018-11-02T15:05:14.210Z,55.60
2018-11-02T15:07:42.601Z,56.10
2018-11-02T15:10:10.301Z,55.81
2018-11-02T15:12:38.533Z,55.81
2018-11-02T15:15:06.412Z,55.69
2018-11-02T15:17:34.065Z,55.67
2018-11-02T15:20:01.697Z,56.07
2018-11-02T15:22:29.422Z,56.22
2018-11-02T15:26:54.203Z,56.60
2018-11-02T15:29:21.905Z,55.41
2018-11-02T15:31:49.600Z,55.63
2018-11-02T15:34:17.242Z,56.09
2018-11-02T15:36:44.897Z,55.82
2018-11-02T15:39:13.109Z,55.69
2018-11-02T15:41:41.168Z,55.70
2018-11-02T15:44:08.916Z,56.13
2018-11-02T15:46:36.592Z,55.88
2018-11-02T15:49:04.609Z,56.60
2018-11-02T15:51:32.281Z,56.37
2018-11-02T15:53:59.939Z,55.62
2018-11-02T15:56:27.605Z,55.49
2018-11-02T15:58:55.424Z,55.77
2018-11-02T16:01:23.098Z,56.08
2018-11-02T16:03:50.755Z,55.87
2018-11-02T16:06:18.451Z,55.44
2018-11-02T16:08:46.112Z,56.06
2018-11-02T16:11:13.749Z,56.30
2018-11-02T16:13:41.418Z,55.54
2018-11-02T16:16:09.076Z,55.53
2018-11-02T16:18:36.749Z,56.43
2018-11-02T16:21:04.369Z,56.28
2018-11-02T16:23:32.000Z,55.57
2018-11-02T16:25:59.653Z,55.83
2018-11-02T16:28:27.305Z,55.78
2018-11-02T16:30:54.966Z,56.25
2018-11-02T16:33:22.606Z,55.47
2018-11-02T16:35:50.253Z,55.54
2018-11-02T16:38:17.908Z,55.48
2018-11-02T16:40:45.602Z,56.25
2018-11-02T16:43:13.250Z,55.67
2018-11-02T16:45:40.914Z,55.35
2018-11-02T16:48:08.639Z,55.50
2018-11-02T16:50:42.331Z,55.31
2018-11-02T16:53:10.002Z,56.12
2018-11-02T16:55:37.667Z,55.48
2018-11-02T16:58:05.430Z,55.50
2018-11-02T17:00:33.035Z,55.55
2018-11-02T17:03:00.688Z,55.61
2018-11-02T17:05:28.357Z,55.36
2018-11-02T17:07:56.017Z,55.47
2018-11-02T17:10:23.656Z,56.04
2018-11-02T17:12:51.345Z,55.92
2018-11-02T17:15:18.983Z,55.15
2018-11-02T17:17:46.628Z,55.84
2018-11-02T17:20:16.636Z,55.66
2018-11-02T17:22:44.294Z,55.99
2018-11-02T17:25:12.517Z,55.93
2018-11-02T17:27:40.379Z,55.27
2018-11-02T17:30:10.804Z,55.14
2018-11-02T17:32:38.477Z,55.11
2018-11-02T17:35:06.195Z,54.91
2018-11-02T17:37:33.864Z,55.42
2018-11-02T17:40:01.519Z,55.24
2018-11-02T17:42:29.174Z,55.00
2018-11-02T17:44:57.394Z,55.19
2018-11-02T17:47:25.044Z,55.08
2018-11-02T17:49:53.375Z,54.93
2018-11-02T17:52:21.023Z,54.95
2018-11-02T17:54:48.722Z,55.11
2018-11-02T17:57:16.373Z,55.11
2018-11-02T17:59:44.004Z,55.12
2018-11-02T18:02:11.673Z,54.89
2018-11-02T18:04:39.333Z,55.60
2018-11-02T18:07:07.050Z,55.70
2018-11-02T18:09:34.692Z,55.18
2018-11-02T18:12:02.451Z,55.93
2018-11-02T18:14:30.180Z,55.79
2018-11-02T18:16:57.808Z,55.88
2018-11-02T18:19:25.482Z,54.95
2018-11-02T18:21:53.463Z,55.83
2018-11-02T18:24:21.189Z,54.99
2018-11-02T18:26:48.788Z,55.12
2018-11-02T18:29:16.453Z,55.92
2018-11-02T18:31:44.097Z,55.84
2018-11-02T18:34:11.744Z,55.51
2018-11-02T18:36:39.413Z,54.94
2018-11-02T18:39:09.473Z,55.08
2018-11-02T18:41:37.118Z,55.70
2018-11-02T18:44:05.004Z,54.90
2018-11-02T18:46:32.663Z,55.27
2018-11-02T18:49:00.305Z,55.24
2018-11-02T18:51:27.970Z,54.92
2018-11-02T18:53:55.610Z,55.69
2018-11-02T18:56:23.246Z,55.84
2018-11-02T18:58:50.961Z,54.94
2018-11-02T19:01:18.613Z,55.94
2018-11-02T19:03:46.268Z,55.33
2018-11-02T19:06:13.913Z,55.04
2018-11-02T19:08:41.565Z,55.68
2018-11-02T19:11:09.222Z,55.10
2018-11-02T19:13:36.884Z,55.88
2018-11-02T19:16:05.206Z,55.40
2018-11-02T19:18:32.872Z,55.09
2018-11-02T19:21:00.538Z,55.16
2018-11-02T19:23:28.205Z,55.14
2018-11-02T19:25:55.888Z,55.58
2018-11-02T19:28:23.530Z,55.74
2018-11-02T19:30:51.184Z,55.03
2018-11-02T19:33:18.834Z,55.00
2018-11-02T19:35:46.498Z,55.44
2018-11-02T19:38:14.404Z,55.17
2018-11-02T19:40:41.841Z,55.89
2018-11-02T19:43:09.499Z,55.26
2018-11-02T19:45:37.129Z,55.26
2018-11-02T19:48:05.558Z,55.34
2018-11-02T19:50:33.362Z,55.33
2018-11-02T19:53:00.949Z,55.29
2018-11-02T19:55:28.660Z,55.66
2018-11-02T19:57:56.286Z,54.79
2018-11-02T20:00:23.937Z,54.86
2018-11-02T20:02:51.594Z,55.44
2018-11-02T20:05:20.074Z,54.87
2018-11-02T20:07:47.705Z,55.21
2018-11-02T20:10:16.107Z,55.31
2018-11-02T20:12:44.180Z,55.67
2018-11-02T20:15:12.765Z,55.00
2018-11-02T20:17:40.702Z,54.87
2018-11-02T20:20:08.849Z,54.90
2018-11-02T20:22:36.776Z,55.64
2018-11-02T20:25:04.524Z,55.71
2018-11-02T20:27:32.177Z,55.31
2018-11-02T20:29:59.849Z,54.80
2018-11-02T20:32:27.581Z,55.06
2018-11-02T20:34:55.186Z,54.79
2018-11-02T20:37:22.835Z,54.90
2018-11-02T20:39:50.479Z,54.78
2018-11-02T20:42:18.114Z,55.13
2018-11-02T20:44:45.770Z,54.84
2018-11-02T20:47:13.425Z,55.17
2018-11-02T20:49:41.079Z,55.30
2018-11-02T20:52:08.754Z,55.59
2018-11-02T20:54:36.410Z,54.92
2018-11-02T20:57:04.065Z,55.08
2018-11-02T20:59:31.737Z,55.23
2018-11-02T21:01:59.399Z,54.85
2018-11-02T21:04:27.047Z,55.75
2018-11-02T21:06:54.772Z,55.47
2018-11-02T21:09:22.630Z,55.50
2018-11-02T21:11:50.099Z,55.57
2018-11-02T21:14:17.819Z,55.07
2018-11-02T21:16:45.446Z,54.85
2018-11-02T21:19:13.076Z,55.11
2018-11-02T21:21:40.722Z,54.72
2018-11-02T21:24:08.366Z,54.61
2018-11-02T21:26:36.006Z,55.03
2018-11-02T21:29:03.719Z,55.42
2018-11-02T21:31:31.300Z,55.03
2018-11-02T21:33:59.010Z,55.48
2018-11-02T21:36:26.581Z,54.84
2018-11-02T21:38:54.396Z,55.48
2018-11-02T21:41:21.926Z,55.40
2018-11-02T21:43:49.842Z,55.44
2018-11-02T21:46:17.519Z,55.31
2018-11-02T21:48:45.178Z,55.81
2018-11-02T21:51:12.821Z,55.23
2018-11-02T21:53:40.463Z,54.95
2018-11-02T21:56:08.138Z,54.93
2018-11-02T21:58:35.872Z,54.90
2018-11-02T22:01:03.455Z,55.21
2018-11-02T22:03:31.122Z,55.15
2018-11-02T22:05:58.869Z,55.20
2018-11-02T22:08:26.440Z,55.14
2018-11-02T22:10:54.080Z,55.10
2018-11-02T22:13:21.729Z,55.51
2018-11-02T22:15:49.410Z,55.41
2018-11-02T22:18:17.064Z,55.18
2018-11-02T22:20:44.717Z,55.81
2018-11-02T22:23:12.375Z,54.99
2018-11-02T22:25:40.051Z,55.26
2018-11-02T22:28:07.697Z,55.23
2018-11-02T22:30:35.366Z,55.03
2018-11-02T22:33:03.033Z,55.85
2018-11-02T22:35:30.678Z,55.38
2018-11-02T22:37:58.321Z,55.47
2018-11-02T22:40:25.978Z,55.01
2018-11-02T22:42:53.687Z,55.35
2018-11-02T22:45:21.324Z,55.70
2018-11-02T22:47:54.421Z,55.17
2018-11-02T22:50:22.096Z,55.93
2018-11-02T22:52:49.721Z,55.41
2018-11-02T22:55:17.374Z,54.89
2018-11-02T22:57:45.035Z,55.32
2018-11-02T23:00:15.254Z,55.87
2018-11-02T23:02:43.326Z,55.02
2018-11-02T23:05:11.053Z,55.52
2018-11-02T23:07:38.706Z,55.79
2018-11-02T23:10:06.707Z,54.76
2018-11-02T23:12:34.612Z,55.04
2018-11-02T23:15:02.234Z,55.82
2018-11-02T23:17:29.873Z,55.07
2018-11-02T23:19:57.506Z,55.24
2018-11-02T23:22:25.441Z,54.93
2018-11-02T23:24:53.094Z,55.12
2018-11-02T23:27:20.741Z,55.47
2018-11-02T23:29:48.866Z,55.91
2018-11-02T23:32:16.517Z,55.15
2018-11-02T23:34:44.169Z,55.20
2018-11-02T23:37:11.817Z,55.12
2018-11-02T23:39:39.561Z,55.14
2018-11-02T23:42:07.276Z,55.17
2018-11-02T23:44:35.006Z,55.12
2018-11-02T23:47:02.665Z,55.21
2018-11-02T23:49:30.337Z,55.22
2018-11-02T23:51:58.058Z,55.19
2018-11-02T23:54:25.740Z,55.79
2018-11-02T23:56:53.396Z,55.44
2018-11-02T23:59:21.081Z,55.51
